createdAt,value
2023-02-27T00:00:53.669Z,5.09
2023-02-27T00:03:40.751Z,4.96
2023-02-27T00:06:27.888Z,5.00
2023-02-27T00:09:13.778Z,5.01
2023-02-27T00:12:04.018Z,5.02
2023-02-27T00:14:51.498Z,5.05
2023-02-27T00:17:38.775Z,5.11
2023-02-27T00:20:24.847Z,5.16
2023-02-27T00:23:10.972Z,5.13
2023-02-27T00:25:57.602Z,4.99
2023-02-27T00:28:43.232Z,4.92
2023-02-27T00:31:29.471Z,4.77
2023-02-27T00:34:15.800Z,4.54
2023-02-27T00:37:04.689Z,4.37
2023-02-27T00:39:51.150Z,4.31
2023-02-27T00:42:38.081Z,4.28
2023-02-27T00:45:23.841Z,4.22
2023-02-27T00:48:10.974Z,4.35
2023-02-27T00:50:56.732Z,4.30
2023-02-27T00:53:42.803Z,4.43
2023-02-27T00:56:29.789Z,4.42
2023-02-27T00:59:20.040Z,4.48
2023-02-27T01:02:08.576Z,4.35
2023-02-27T01:04:58.919Z,4.43
2023-02-27T01:07:45.859Z,4.04
2023-02-27T01:10:33.200Z,4.36
2023-02-27T01:13:19.239Z,4.36
2023-02-27T01:16:15.896Z,4.20
2023-02-27T01:19:02.866Z,4.20
2023-02-27T01:21:50.857Z,4.20
2023-02-27T01:24:49.789Z,4.25
2023-02-27T01:27:36.879Z,4.25
2023-02-27T01:30:24.050Z,4.32
2023-02-27T01:33:10.165Z,4.25
2023-02-27T01:36:01.167Z,4.23
2023-02-27T01:38:47.599Z,4.25
2023-02-27T01:41:45.382Z,4.18
2023-02-27T01:44:32.015Z,4.23
2023-02-27T01:47:18.276Z,4.23
2023-02-27T01:50:04.952Z,4.19
2023-02-27T01:52:57.539Z,4.23
2023-02-27T01:55:46.834Z,4.17
2023-02-27T01:58:34.447Z,4.20
2023-02-27T02:01:22.537Z,4.25
2023-02-27T02:04:30.553Z,4.32
2023-02-27T02:07:19.564Z,4.34
2023-02-27T02:10:06.470Z,4.37
2023-02-27T02:13:23.961Z,4.31
2023-02-27T02:16:41.137Z,4.41
2023-02-27T02:19:49.969Z,4.40
2023-02-27T02:23:01.801Z,4.34
2023-02-27T02:25:58.728Z,4.43
2023-02-27T02:29:07.437Z,4.43
2023-02-27T02:31:59.171Z,4.51
2023-02-27T02:35:23.251Z,4.46
2023-02-27T02:38:18.327Z,4.50
2023-02-27T02:41:18.348Z,4.48
2023-02-27T02:44:27.584Z,4.52
2023-02-27T02:47:57.191Z,4.58
2023-02-27T02:51:07.763Z,4.62
2023-02-27T02:54:04.539Z,4.63
2023-02-27T02:56:54.731Z,4.72
2023-02-27T03:00:03.610Z,4.79
2023-02-27T03:02:53.805Z,4.85
2023-02-27T03:05:45.040Z,4.88
2023-02-27T03:08:34.574Z,4.88
2023-02-27T03:11:23.429Z,4.86
2023-02-27T03:14:19.093Z,4.81
2023-02-27T03:17:09.313Z,4.85
2023-02-27T03:20:00.006Z,4.82
2023-02-27T03:22:47.999Z,4.83
2023-02-27T03:25:36.195Z,4.78
2023-02-27T03:28:27.090Z,4.67
2023-02-27T03:31:26.058Z,4.69
2023-02-27T03:34:28.026Z,4.63
2023-02-27T03:37:27.789Z,4.71
2023-02-27T03:40:16.623Z,4.74
2023-02-27T03:43:16.891Z,4.72
2023-02-27T03:46:31.091Z,4.70
2023-02-27T03:49:18.293Z,4.78
2023-02-27T03:52:04.063Z,4.78
2023-02-27T03:55:08.290Z,4.79
2023-02-27T03:57:54.069Z,4.79
2023-02-27T04:00:40.926Z,4.85
2023-02-27T04:03:27.141Z,4.89
2023-02-27T04:06:31.386Z,4.96
2023-02-27T04:09:16.837Z,4.99
2023-02-27T04:12:31.634Z,5.06
2023-02-27T04:15:50.019Z,5.11
2023-02-27T04:19:04.985Z,5.11
2023-02-27T04:22:29.262Z,5.12
2023-02-27T04:25:27.868Z,5.11
2023-02-27T04:28:34.316Z,5.02
2023-02-27T04:31:51.834Z,5.03
2023-02-27T04:34:42.567Z,4.97
2023-02-27T04:37:46.630Z,4.95
2023-02-27T04:41:04.416Z,4.92
2023-02-27T04:43:50.563Z,4.94
2023-02-27T04:46:39.642Z,4.93
2023-02-27T04:49:44.444Z,4.98
2023-02-27T04:52:34.607Z,5.00
2023-02-27T04:55:25.226Z,5.00
2023-02-27T04:58:42.033Z,4.99
2023-02-27T05:01:37.405Z,4.95
2023-02-27T05:04:26.304Z,4.96
2023-02-27T05:07:17.800Z,4.96
2023-02-27T05:10:06.956Z,4.96
2023-02-27T05:13:03.837Z,4.97
2023-02-27T05:15:54.721Z,4.94
2023-02-27T05:18:41.570Z,4.94
2023-02-27T05:21:36.342Z,4.93
2023-02-27T05:24:50.302Z,4.94
2023-02-27T05:27:42.192Z,4.93
2023-02-27T05:30:42.850Z,4.99
2023-02-27T05:33:56.220Z,4.99
2023-02-27T05:36:54.551Z,5.05
2023-02-27T05:39:41.121Z,5.07
2023-02-27T05:42:29.862Z,5.04
2023-02-27T05:45:21.083Z,5.08
2023-02-27T05:48:17.830Z,5.09
2023-02-27T05:51:07.218Z,5.08
2023-02-27T05:54:01.876Z,5.06
2023-02-27T05:56:49.622Z,4.98
2023-02-27T05:59:43.503Z,5.00
2023-02-27T06:02:29.314Z,4.95
2023-02-27T06:05:16.958Z,4.98
2023-02-27T06:08:02.845Z,4.99
2023-02-27T06:10:50.035Z,5.00
2023-02-27T06:13:35.969Z,5.03
2023-02-27T06:16:21.881Z,5.02
2023-02-27T06:19:07.732Z,5.05
2023-02-27T06:21:53.820Z,4.98
2023-02-27T06:24:39.419Z,4.88
2023-02-27T06:27:26.971Z,4.85
2023-02-27T06:30:13.278Z,4.81
2023-02-27T06:33:01.076Z,4.80
2023-02-27T06:35:50.435Z,4.72
2023-02-27T06:38:37.261Z,4.73
2023-02-27T06:41:23.122Z,4.70
2023-02-27T06:44:08.745Z,4.68
2023-02-27T06:47:01.331Z,4.66
2023-02-27T06:49:57.539Z,4.69
2023-02-27T06:52:43.420Z,4.72
2023-02-27T06:55:29.202Z,4.74
2023-02-27T06:58:16.092Z,4.78
2023-02-27T07:01:02.168Z,4.83
2023-02-27T07:03:48.045Z,4.83
2023-02-27T07:07:34.500Z,4.89
2023-02-27T07:09:39.807Z,4.88
2023-02-27T07:12:25.679Z,4.87
2023-02-27T07:15:11.893Z,4.89
2023-02-27T07:17:58.987Z,4.86
2023-02-27T07:20:44.861Z,4.87
2023-02-27T07:23:30.560Z,4.85
2023-02-27T07:26:16.445Z,4.89
2023-02-27T07:29:02.122Z,4.96
2023-02-27T07:31:49.136Z,5.08
2023-02-27T07:34:34.988Z,5.13
2023-02-27T07:37:20.681Z,5.17
2023-02-27T07:40:10.176Z,5.18
2023-02-27T07:42:56.225Z,5.18
2023-02-27T07:45:42.625Z,5.19
2023-02-27T07:48:29.675Z,5.21
2023-02-27T07:51:15.470Z,5.18
2023-02-27T07:54:01.322Z,5.20
2023-02-27T07:56:47.406Z,5.22
2023-02-27T07:59:33.252Z,5.20
2023-02-27T08:02:19.211Z,5.19
2023-02-27T08:05:06.299Z,5.17
2023-02-27T08:07:52.361Z,5.11
2023-02-27T08:10:38.095Z,5.07
2023-02-27T08:13:35.932Z,5.10
2023-02-27T08:16:31.205Z,5.13
2023-02-27T08:19:17.344Z,5.21
2023-02-27T08:22:03.758Z,5.23
2023-02-27T08:24:53.942Z,5.31
2023-02-27T08:27:39.759Z,5.39
2023-02-27T08:30:25.622Z,5.42
2023-02-27T08:33:14.126Z,5.52
2023-02-27T08:35:59.999Z,5.55
2023-02-27T08:38:46.365Z,5.55
2023-02-27T08:41:32.726Z,5.53
2023-02-27T08:44:19.225Z,5.62
2023-02-27T08:47:04.943Z,5.65
2023-02-27T08:49:50.813Z,5.70
2023-02-27T08:52:36.720Z,5.70
2023-02-27T08:55:22.589Z,5.73
2023-02-27T08:58:09.500Z,5.76
2023-02-27T09:00:56.503Z,5.85
2023-02-27T09:03:42.090Z,5.92
2023-02-27T09:06:30.062Z,6.07
2023-02-27T09:09:16.115Z,6.11
2023-02-27T09:12:01.857Z,6.27
2023-02-27T09:14:47.589Z,6.33
2023-02-27T09:17:34.338Z,6.30
2023-02-27T09:20:20.341Z,6.30
2023-02-27T09:23:06.052Z,6.29
2023-02-27T09:25:51.800Z,6.37
2023-02-27T09:28:40.120Z,6.42
2023-02-27T09:31:32.823Z,6.39
2023-02-27T09:34:19.478Z,6.43
2023-02-27T09:37:05.322Z,6.47
2023-02-27T09:39:51.477Z,6.52
2023-02-27T09:42:45.678Z,6.53
2023-02-27T09:45:36.618Z,6.61
2023-02-27T09:48:41.482Z,6.68
2023-02-27T09:51:29.367Z,6.71
2023-02-27T09:54:15.552Z,6.82
2023-02-27T09:57:04.049Z,6.85
2023-02-27T09:59:57.185Z,6.81
2023-02-27T10:02:46.143Z,6.80
2023-02-27T10:05:40.473Z,6.78
2023-02-27T10:08:51.640Z,6.69
2023-02-27T10:12:08.713Z,6.76
2023-02-27T10:15:15.572Z,6.78
2023-02-27T10:18:29.677Z,6.83
2023-02-27T10:21:21.405Z,6.89
2023-02-27T10:24:27.521Z,6.89
2023-02-27T10:27:17.981Z,6.95
2023-02-27T10:30:28.548Z,6.93
2023-02-27T10:33:55.618Z,7.02
2023-02-27T10:36:41.549Z,7.09
2023-02-27T10:39:30.591Z,7.22
2023-02-27T10:42:17.474Z,7.33
2023-02-27T10:45:06.497Z,7.44
2023-02-27T10:47:52.332Z,7.56
2023-02-27T10:50:41.390Z,7.72
2023-02-27T10:53:31.337Z,7.89
2023-02-27T10:56:24.682Z,8.06
2023-02-27T10:59:39.456Z,8.08
2023-02-27T11:02:29.610Z,8.17
2023-02-27T11:05:33.677Z,8.06
2023-02-27T11:08:20.731Z,7.90
2023-02-27T11:11:11.951Z,7.75
2023-02-27T11:14:20.445Z,7.67
2023-02-27T11:17:06.659Z,7.64
2023-02-27T11:19:53.472Z,7.59
2023-02-27T11:22:41.775Z,7.58
2023-02-27T11:25:27.409Z,7.55
2023-02-27T11:28:25.747Z,7.53
2023-02-27T11:31:17.545Z,7.53
2023-02-27T11:34:04.971Z,7.53
2023-02-27T11:36:54.894Z,7.51
2023-02-27T11:39:49.244Z,7.49
2023-02-27T11:42:37.216Z,7.52
2023-02-27T11:46:11.854Z,7.51
2023-02-27T11:48:54.064Z,7.64
2023-02-27T11:51:59.276Z,7.72
2023-02-27T11:54:56.506Z,7.92
2023-02-27T11:57:43.952Z,8.08
2023-02-27T12:00:33.737Z,8.17
2023-02-27T12:03:36.681Z,8.30
2023-02-27T12:06:28.898Z,8.38
2023-02-27T12:09:27.836Z,8.40
2023-02-27T12:12:22.023Z,8.45
2023-02-27T12:15:16.579Z,8.55
2023-02-27T12:18:23.492Z,8.62
2023-02-27T12:21:20.028Z,8.67
2023-02-27T12:24:46.564Z,8.66
2023-02-27T12:27:43.712Z,8.61
2023-02-27T12:30:34.477Z,8.51
2023-02-27T12:33:29.005Z,8.40
2023-02-27T12:36:15.003Z,8.32
2023-02-27T12:39:01.162Z,8.25
2023-02-27T12:42:11.502Z,8.15
2023-02-27T12:45:15.829Z,8.06
2023-02-27T12:48:23.192Z,7.98
2023-02-27T12:51:17.474Z,7.96
2023-02-27T12:54:22.103Z,7.92
2023-02-27T12:57:29.741Z,7.87
2023-02-27T13:00:19.664Z,7.88
2023-02-27T13:03:15.489Z,7.87
2023-02-27T13:06:26.257Z,7.86
2023-02-27T13:09:34.208Z,7.86
2023-02-27T13:12:33.873Z,7.88
2023-02-27T13:15:44.865Z,7.87
2023-02-27T13:18:39.723Z,7.90
2023-02-27T13:21:40.110Z,7.82
2023-02-27T13:24:27.356Z,7.91
2023-02-27T13:27:25.076Z,7.91
2023-02-27T13:30:16.129Z,7.89
2023-02-27T13:33:13.238Z,7.88
2023-02-27T13:36:22.496Z,7.87
2023-02-27T13:39:52.972Z,7.82
2023-02-27T13:42:38.632Z,7.83
2023-02-27T13:45:49.504Z,7.79
2023-02-27T13:48:40.789Z,7.77
2023-02-27T13:51:41.245Z,7.74
2023-02-27T13:54:39.742Z,7.69
2023-02-27T13:57:31.913Z,7.66
2023-02-27T14:00:24.955Z,7.61
2023-02-27T14:03:21.465Z,7.57
2023-02-27T14:06:07.302Z,7.55
2023-02-27T14:09:08.881Z,7.55
2023-02-27T14:12:02.655Z,7.54
2023-02-27T14:14:50.383Z,7.54
2023-02-27T14:17:36.271Z,7.49
2023-02-27T14:20:30.125Z,7.43
2023-02-27T14:23:15.894Z,7.36
2023-02-27T14:26:15.655Z,7.27
2023-02-27T14:29:01.871Z,7.24
2023-02-27T14:31:48.421Z,7.20
2023-02-27T14:34:36.166Z,7.16
2023-02-27T14:37:25.151Z,7.15
2023-02-27T14:40:29.761Z,7.11
2023-02-27T14:43:26.710Z,7.10
2023-02-27T14:46:27.105Z,7.08
2023-02-27T14:49:22.569Z,7.07
2023-02-27T14:52:22.240Z,7.03
2023-02-27T14:55:28.132Z,6.99
2023-02-27T14:58:14.098Z,6.98
2023-02-27T15:01:03.916Z,6.95
2023-02-27T15:04:00.014Z,6.96
2023-02-27T15:06:53.611Z,6.92
2023-02-27T15:09:44.711Z,6.94
2023-02-27T15:12:31.131Z,6.93
2023-02-27T15:15:20.841Z,6.93
2023-02-27T15:18:13.099Z,6.89
2023-02-27T15:20:59.463Z,6.82
2023-02-27T15:23:54.160Z,6.84
2023-02-27T15:26:40.707Z,6.83
2023-02-27T15:29:34.409Z,6.81
2023-02-27T15:32:40.093Z,6.81
2023-02-27T15:35:29.685Z,6.81
2023-02-27T15:38:26.408Z,6.79
2023-02-27T15:41:14.047Z,6.76
2023-02-27T15:44:01.427Z,6.77
2023-02-27T15:46:47.762Z,6.73
2023-02-27T15:49:39.509Z,6.74
2023-02-27T15:52:26.920Z,6.77
2023-02-27T15:55:14.983Z,6.78
2023-02-27T15:58:03.534Z,6.79
2023-02-27T16:00:52.993Z,6.75
2023-02-27T16:03:43.992Z,6.70
2023-02-27T16:06:35.440Z,6.65
2023-02-27T16:09:30.376Z,6.65
2023-02-27T16:12:32.029Z,6.61
2023-02-27T16:15:38.977Z,6.58
2023-02-27T16:18:37.730Z,6.60
2023-02-27T16:21:25.363Z,6.62
2023-02-27T16:24:32.073Z,6.66
2023-02-27T16:27:28.996Z,6.70
2023-02-27T16:30:16.214Z,6.75
2023-02-27T16:33:04.672Z,6.77
2023-02-27T16:35:50.964Z,6.78
2023-02-27T16:38:38.528Z,6.84
2023-02-27T16:41:24.956Z,6.88
2023-02-27T16:44:12.829Z,6.91
2023-02-27T16:47:02.178Z,6.97
2023-02-27T16:49:49.873Z,6.98
2023-02-27T16:52:35.543Z,6.85
2023-02-27T16:55:21.416Z,6.69
2023-02-27T16:58:09.765Z,6.68
2023-02-27T17:00:57.077Z,6.58
2023-02-27T17:03:44.307Z,6.50
2023-02-27T17:06:30.666Z,6.39
2023-02-27T17:09:16.945Z,6.35
2023-02-27T17:12:02.632Z,6.31
2023-02-27T17:14:48.571Z,6.28
2023-02-27T17:17:34.420Z,6.24
2023-02-27T17:20:20.139Z,6.23
2023-02-27T17:23:05.919Z,6.18
2023-02-27T17:25:55.250Z,6.21
2023-02-27T17:28:40.986Z,6.24
2023-02-27T17:31:27.009Z,6.22
2023-02-27T17:34:13.049Z,6.28
2023-02-27T17:37:00.794Z,6.25
2023-02-27T17:39:46.684Z,6.27
2023-02-27T17:42:32.825Z,6.27
2023-02-27T17:45:21.213Z,6.25
2023-02-27T17:48:07.850Z,6.21
2023-02-27T17:50:53.697Z,6.27
2023-02-27T17:53:40.198Z,6.26
2023-02-27T17:56:26.558Z,6.25
2023-02-27T17:59:12.608Z,6.24
2023-02-27T18:01:59.160Z,6.10
2023-02-27T18:04:45.279Z,6.21
2023-02-27T18:07:31.543Z,6.25
2023-02-27T18:10:17.582Z,6.26
2023-02-27T18:13:05.406Z,6.29
2023-02-27T18:15:52.128Z,6.33
2023-02-27T18:18:39.624Z,6.37
2023-02-27T18:21:25.797Z,6.43
2023-02-27T18:24:11.644Z,6.44
2023-02-27T18:26:57.890Z,6.48
2023-02-27T18:29:43.906Z,6.44
2023-02-27T18:32:30.034Z,6.39
2023-02-27T18:35:16.814Z,6.28
2023-02-27T18:38:03.743Z,6.16
2023-02-27T18:40:49.598Z,6.09
2023-02-27T18:43:36.808Z,6.01
2023-02-27T18:46:23.274Z,5.91
2023-02-27T18:49:09.053Z,5.82
2023-02-27T18:51:56.002Z,5.73
2023-02-27T18:54:42.607Z,5.57
2023-02-27T18:57:28.530Z,5.55
2023-02-27T19:00:14.667Z,5.48
2023-02-27T19:03:00.464Z,5.43
2023-02-27T19:05:46.554Z,5.38
2023-02-27T19:08:32.743Z,5.38
2023-02-27T19:11:28.649Z,5.37
2023-02-27T19:14:16.336Z,5.40
2023-02-27T19:17:02.137Z,5.42
2023-02-27T19:19:48.297Z,5.42
2023-02-27T19:22:34.478Z,5.41
2023-02-27T19:25:22.737Z,5.41
2023-02-27T19:28:11.334Z,5.41
2023-02-27T19:30:58.416Z,5.44
2023-02-27T19:33:44.536Z,5.47
2023-02-27T19:36:31.341Z,5.52
2023-02-27T19:39:17.571Z,5.51
2023-02-27T19:42:03.575Z,5.55
2023-02-27T19:44:49.706Z,5.53
2023-02-27T19:47:36.464Z,5.54
2023-02-27T19:50:22.294Z,5.52
2023-02-27T19:53:08.364Z,5.48
2023-02-27T19:56:02.910Z,5.47
2023-02-27T19:58:48.751Z,5.49
2023-02-27T20:01:36.482Z,5.43
2023-02-27T20:04:22.388Z,5.31
2023-02-27T20:07:08.623Z,5.43
2023-02-27T20:09:57.304Z,5.45
2023-02-27T20:12:44.297Z,5.42
2023-02-27T20:15:30.584Z,5.50
2023-02-27T20:18:16.143Z,5.52
2023-02-27T20:21:05.789Z,5.59
2023-02-27T20:23:52.518Z,5.63
2023-02-27T20:26:43.396Z,5.64
2023-02-27T20:29:29.374Z,5.67
2023-02-27T20:32:15.168Z,5.71
2023-02-27T20:35:01.256Z,5.74
2023-02-27T20:37:46.989Z,5.74
2023-02-27T20:40:33.732Z,5.76
2023-02-27T20:43:20.660Z,5.73
2023-02-27T20:46:09.041Z,5.73
2023-02-27T20:49:00.875Z,5.73
2023-02-27T20:51:46.549Z,5.72
2023-02-27T20:54:32.430Z,5.72
2023-02-27T20:57:18.092Z,5.73
2023-02-27T21:00:05.506Z,5.70
2023-02-27T21:02:51.802Z,5.68
2023-02-27T21:05:49.029Z,5.72
2023-02-27T21:08:39.884Z,5.62
2023-02-27T21:11:29.927Z,5.69
2023-02-27T21:14:16.168Z,5.66
2023-02-27T21:17:02.127Z,5.65
2023-02-27T21:19:48.104Z,5.62
2023-02-27T21:22:43.069Z,5.59
2023-02-27T21:25:28.961Z,5.56
2023-02-27T21:28:14.661Z,5.53
2023-02-27T21:31:05.937Z,5.49
2023-02-27T21:33:53.130Z,5.49
2023-02-27T21:36:43.659Z,5.49
2023-02-27T21:39:29.639Z,5.53
2023-02-27T21:42:17.547Z,5.54
2023-02-27T21:45:03.660Z,5.55
2023-02-27T21:47:49.492Z,5.63
2023-02-27T21:50:36.673Z,5.64
2023-02-27T21:53:22.699Z,5.69
2023-02-27T21:56:11.166Z,5.70
2023-02-27T21:59:01.377Z,5.62
2023-02-27T22:01:48.577Z,5.62
2023-02-27T22:04:34.499Z,5.61
2023-02-27T22:07:20.313Z,5.59
2023-02-27T22:10:07.283Z,5.57
2023-02-27T22:12:53.474Z,5.53
2023-02-27T22:15:40.312Z,5.46
2023-02-27T22:18:27.115Z,5.47
2023-02-27T22:21:25.373Z,5.49
2023-02-27T22:24:11.867Z,5.52
2023-02-27T22:26:58.023Z,5.52
2023-02-27T22:29:44.338Z,5.53
2023-02-27T22:32:30.325Z,5.48
2023-02-27T22:35:16.748Z,5.44
2023-02-27T22:38:02.930Z,5.43
2023-02-27T22:40:48.703Z,5.39
2023-02-27T22:43:34.999Z,5.36
2023-02-27T22:46:29.307Z,5.32
2023-02-27T22:49:18.440Z,5.30
2023-02-27T22:52:04.786Z,5.36
2023-02-27T22:54:52.978Z,5.37
2023-02-27T22:57:39.172Z,5.42
2023-02-27T23:00:25.440Z,5.52
2023-02-27T23:03:11.464Z,5.55
2023-02-27T23:05:57.257Z,5.52
2023-02-27T23:08:43.552Z,5.64
2023-02-27T23:11:33.969Z,5.63
2023-02-27T23:14:23.288Z,5.65
2023-02-27T23:17:09.149Z,5.64
2023-02-27T23:19:54.901Z,5.61
2023-02-27T23:22:40.865Z,5.59
2023-02-27T23:25:26.995Z,5.59
2023-02-27T23:28:12.683Z,5.57
2023-02-27T23:30:59.897Z,5.55
2023-02-27T23:33:45.776Z,5.57
2023-02-27T23:36:32.652Z,5.60
2023-02-27T23:39:19.562Z,5.63
2023-02-27T23:42:06.292Z,5.66
2023-02-27T23:45:08.127Z,5.65
2023-02-27T23:47:56.201Z,5.62
2023-02-27T23:50:44.522Z,5.63
2023-02-27T23:53:30.441Z,5.58
2023-02-27T23:56:26.837Z,5.61
2023-02-27T23:59:12.842Z,5.56
